Time;durP1;ratioP1;P1;durP2;ratioP2;P2;SDS_P1;SDS_P2;PMS_P1;PMS_P2;Temp;Humidity;BMP_temperature;BMP_pressure;BME280_temperature;BME280_humidity;BME280_pressure;Samples;Min_cycle;Max_cycle;Signal;HPM_P1;HPM_P2
2023/10/18 00:02:10;;;;;;;43.67;20.20;;;4.90;99.90;;;;;;4900961;29;20054;-87
2023/10/18 00:04:38;;;;;;;43.57;21.47;;;4.10;99.90;;;;;;4902136;29;20054;-88
2023/10/18 00:07:04;;;;;;;43.47;19.63;;;4.80;99.90;;;;;;4902236;29;20040;-88
2023/10/18 00:09:38;;;;;;;48.93;21.17;;;4.20;99.90;;;;;;4901138;29;20387;-88
2023/10/18 00:12:07;;;;;;;46.80;20.90;;;4.20;99.90;;;;;;4933780;29;20044;-88
2023/10/18 00:14:34;;;;;;;49.00;22.07;;;4.70;99.90;;;;;;4901312;29;20147;-88
2023/10/18 00:17:00;;;;;;;48.30;21.10;;;4.00;99.90;;;;;;4901654;29;20135;-88
2023/10/18 00:19:26;;;;;;;45.17;21.50;;;4.40;99.90;;;;;;4933635;29;20135;-88
2023/10/18 00:21:52;;;;;;;46.33;22.00;;;4.70;99.90;;;;;;4901027;29;20139;-88
2023/10/18 00:24:18;;;;;;;48.80;23.00;;;5.30;99.90;;;;;;4918786;29;20054;-88
2023/10/18 00:26:45;;;;;;;48.50;21.80;;;5.50;99.90;;;;;;4933499;29;20076;-88
2023/10/18 00:29:10;;;;;;;53.10;24.67;;;4.50;99.90;;;;;;4900676;29;20152;-87
2023/10/18 00:31:36;;;;;;;50.87;23.23;;;4.10;99.90;;;;;;4918403;29;20520;-88
2023/10/18 00:34:04;;;;;;;53.33;23.73;;;4.20;99.90;;;;;;4901025;29;20051;-87
2023/10/18 00:36:32;;;;;;;53.03;23.60;;;4.20;99.90;;;;;;4900295;29;20131;-88
2023/10/18 00:38:57;;;;;;;56.23;24.80;;;4.30;99.90;;;;;;4909060;29;20048;-88
2023/10/18 00:41:32;;;;;;;51.87;24.43;;;3.50;99.90;;;;;;4913705;29;20531;-88
2023/10/18 00:44:01;;;;;;;53.93;24.17;;;5.80;99.90;;;;;;4913161;29;20060;-88
2023/10/18 00:46:28;;;;;;;48.10;23.00;;;4.40;99.90;;;;;;4882422;29;20064;-88
2023/10/18 00:48:54;;;;;;;51.23;23.30;;;;;;;;;;4899255;29;20437;-88
2023/10/18 00:51:24;;;;;;;52.93;23.73;;;4.40;99.90;;;;;;4882159;29;20063;-88
2023/10/18 00:53:51;;;;;;;55.27;25.40;;;4.10;99.90;;;;;;4898135;29;20049;-88
2023/10/18 00:56:17;;;;;;;46.63;23.17;;;4.00;99.90;;;;;;4913352;29;20037;-88
2023/10/18 00:58:44;;;;;;;54.57;24.10;;;5.10;99.90;;;;;;4881412;29;20409;-88
2023/10/18 01:01:10;;;;;;;52.27;23.73;;;4.20;99.90;;;;;;4882309;29;20053;-88
2023/10/18 01:03:41;;;;;;;54.90;23.37;;;4.20;99.90;;;;;;4912511;29;20156;-87
2023/10/18 01:06:08;;;;;;;49.47;22.47;;;4.90;99.90;;;;;;4897936;29;20080;-88
2023/10/18 01:08:37;;;;;;;49.23;24.03;;;5.30;99.90;;;;;;4913445;29;20441;-88
2023/10/18 01:11:06;;;;;;;54.30;24.33;;;3.90;99.90;;;;;;4881690;29;20056;-88
2023/10/18 01:13:43;;;;;;;51.43;23.57;;;3.50;99.90;;;;;;4882034;29;20508;-87
2023/10/18 01:16:14;;;;;;;54.93;24.67;;;4.00;99.90;;;;;;4881524;29;20420;-88
2023/10/18 01:18:44;;;;;;;53.50;24.57;;;4.70;99.90;;;;;;4914089;29;20052;-87
2023/10/18 01:21:19;;;;;;;54.53;24.37;;;3.80;99.90;;;;;;4881633;29;20496;-88
2023/10/18 01:24:21;;;;;;;56.37;25.10;;;3.80;99.90;;;;;;4881891;29;20086;-88
2023/10/18 01:26:46;;;;;;;55.20;25.03;;;4.10;99.90;;;;;;4881255;29;20048;-88
2023/10/18 01:29:13;;;;;;;53.43;24.60;;;4.10;99.90;;;;;;4898323;29;20077;-88
2023/10/18 01:31:45;;;;;;;58.97;25.10;;;4.40;99.90;;;;;;4919382;29;20052;-88
2023/10/18 01:34:11;;;;;;;57.47;25.67;;;4.40;99.90;;;;;;4900083;29;20570;-88
2023/10/18 01:36:41;;;;;;;55.03;24.93;;;4.10;99.90;;;;;;4883045;29;20501;-88
2023/10/18 01:39:18;;;;;;;62.70;25.73;;;4.50;99.90;;;;;;4896349;29;20056;-88
2023/10/18 01:41:47;;;;;;;63.20;27.03;;;4.10;99.90;;;;;;4881406;29;20401;-88
2023/10/18 01:44:18;;;;;;;63.17;26.70;;;4.20;99.90;;;;;;4897921;29;20071;-87
2023/10/18 01:46:45;;;;;;;62.03;26.47;;;5.50;99.90;;;;;;4898523;29;20048;-88
2023/10/18 01:49:16;;;;;;;61.90;25.97;;;5.30;99.90;;;;;;4900091;29;20107;-88
2023/10/18 01:51:44;;;;;;;62.47;27.20;;;4.90;99.90;;;;;;4917592;29;20374;-88
2023/10/18 01:54:13;;;;;;;61.70;27.07;;;4.10;99.90;;;;;;4899251;29;20040;-88
2023/10/18 01:56:41;;;;;;;64.17;26.80;;;3.80;99.90;;;;;;4900155;29;20488;-88
2023/10/18 01:59:14;;;;;;;58.57;26.60;;;3.30;99.90;;;;;;4899767;29;20056;-88
2023/10/18 02:01:40;;;;;;;66.15;28.27;;;4.30;99.90;;;;;;4899446;29;20044;-88
2023/10/18 02:04:11;;;;;;;60.43;27.10;;;4.00;99.90;;;;;;4900534;29;20456;-88
2023/10/18 02:06:37;;;;;;;63.23;28.17;;;4.60;99.90;;;;;;4900316;29;20383;-88
2023/10/18 02:09:59;;;;;;;55.20;25.33;;;4.20;99.90;;;;;;4898811;29;20047;-88
2023/10/18 02:12:27;;;;;;;59.53;26.43;;;4.60;99.90;;;;;;4899619;29;20195;-88
2023/10/18 02:14:55;;;;;;;59.73;27.03;;;5.30;99.90;;;;;;4898611;29;20075;-87
2023/10/18 02:17:22;;;;;;;58.23;25.83;;;5.40;99.90;;;;;;4899310;29;20062;-88
2023/10/18 02:19:48;;;;;;;58.10;26.93;;;4.50;99.90;;;;;;4899510;29;20070;-87
2023/10/18 02:22:16;;;;;;;62.97;27.60;;;4.10;99.90;;;;;;4899031;29;20052;-88
2023/10/18 02:24:44;;;;;;;61.63;26.57;;;5.20;99.90;;;;;;4901523;29;20048;-88
2023/10/18 02:27:15;;;;;;;62.70;26.13;;;4.40;99.90;;;;;;4899346;29;20484;-88
2023/10/18 02:29:41;;;;;;;55.27;25.90;;;4.90;99.90;;;;;;4916018;29;20044;-88
2023/10/18 02:32:23;;;;;;;55.10;26.10;;;4.30;99.90;;;;;;4900185;29;20138;-87
2023/10/18 02:34:51;;;;;;;54.00;25.30;;;5.40;99.90;;;;;;4899639;29;20075;-87
2023/10/18 02:37:17;;;;;;;58.17;26.50;;;4.90;99.90;;;;;;4899161;29;20116;-88
2023/10/18 02:39:42;;;;;;;56.17;25.80;;;4.10;99.90;;;;;;4899268;29;20052;-88
2023/10/18 02:42:08;;;;;;;53.33;25.40;;;4.30;99.90;;;;;;4902566;29;20040;-88
2023/10/18 02:44:35;;;;;;;53.80;26.27;;;4.70;99.90;;;;;;4903629;29;20064;-88
2023/10/18 02:47:22;;;;;;;54.97;25.23;;;5.00;99.90;;;;;;4903585;29;20044;-88
2023/10/18 02:50:14;;;;;;;52.10;24.93;;;4.90;99.90;;;;;;4902544;29;20060;-88
2023/10/18 02:52:41;;;;;;;56.87;24.90;;;3.70;99.90;;;;;;4903111;29;20052;-88
2023/10/18 02:55:11;;;;;;;52.60;24.27;;;4.10;99.90;;;;;;4905303;29;20056;-88
2023/10/18 02:57:37;;;;;;;51.43;24.53;;;4.30;99.90;;;;;;4902118;29;20047;-88
2023/10/18 03:00:10;;;;;;;50.27;24.33;;;5.50;99.90;;;;;;4920107;29;20560;-88
2023/10/18 03:02:38;;;;;;;51.77;24.70;;;4.30;99.90;;;;;;4903195;29;20059;-88
2023/10/18 03:05:06;;;;;;;53.13;24.60;;;4.10;99.90;;;;;;4902215;29;20067;-88
2023/10/18 03:07:33;;;;;;;50.20;24.47;;;4.30;99.90;;;;;;4902978;29;20100;-88
2023/10/18 03:10:03;;;;;;;51.27;24.87;;;4.70;99.90;;;;;;4903094;29;20044;-88
2023/10/18 03:12:29;;;;;;;53.57;24.47;;;5.40;99.90;;;;;;4902218;29;20124;-88
2023/10/18 03:14:54;;;;;;;52.07;24.53;;;3.40;99.90;;;;;;4903469;29;20100;-88
2023/10/18 03:17:23;;;;;;;53.83;25.27;;;5.10;99.90;;;;;;4918938;29;20052;-88
2023/10/18 03:19:50;;;;;;;51.53;25.00;;;5.80;99.90;;;;;;4902696;29;20044;-88
2023/10/18 03:22:19;;;;;;;47.33;23.80;;;5.00;99.90;;;;;;4919271;29;20063;-88
2023/10/18 03:24:54;;;;;;;50.20;23.57;;;4.60;99.90;;;;;;4917728;29;20055;-88
2023/10/18 03:27:31;;;;;;;50.30;23.93;;;5.00;99.90;;;;;;4883854;29;20053;-87
2023/10/18 03:30:11;;;;;;;48.93;23.40;;;5.60;99.90;;;;;;4883713;29;20099;-87
2023/10/18 03:32:38;;;;;;;48.07;23.63;;;4.90;99.90;;;;;;4882943;29;20467;-88
2023/10/18 03:35:08;;;;;;;49.27;24.10;;;4.30;99.90;;;;;;4900230;29;20048;-88
2023/10/18 03:37:33;;;;;;;49.23;24.50;;;4.30;99.90;;;;;;4884005;29;20446;-87
2023/10/18 03:40:08;;;;;;;52.03;24.77;;;4.20;99.90;;;;;;4914836;29;20111;-88
2023/10/18 03:42:33;;;;;;;52.13;25.70;;;4.10;99.90;;;;;;4883929;29;20044;-88
2023/10/18 03:45:00;;;;;;;46.00;22.83;;;5.40;99.90;;;;;;4883732;29;20076;-88
2023/10/18 03:47:28;;;;;;;51.43;24.37;;;4.20;99.90;;;;;;4899439;29;20061;-88
2023/10/18 03:49:55;;;;;;;48.30;24.13;;;4.30;99.90;;;;;;4899818;29;20071;-87
2023/10/18 03:52:21;;;;;;;48.67;24.57;;;4.10;99.90;;;;;;4881358;29;20080;-87
2023/10/18 03:57:27;;;;;;;47.37;24.23;;;4.70;99.90;;;;;;4918634;29;20052;-88
2023/10/18 04:00:08;;;;;;;48.40;23.80;;;5.20;99.90;;;;;;4916931;29;20119;-87
2023/10/18 04:02:34;;;;;;;48.27;24.07;;;4.20;99.90;;;;;;4907718;29;20123;-87
2023/10/18 04:05:11;;;;;;;47.87;24.30;;;3.90;99.90;;;;;;4901407;29;20199;-87
2023/10/18 04:07:38;;;;;;;46.50;24.00;;;4.70;99.90;;;;;;4900194;29;20059;-88
2023/10/18 04:10:17;;;;;;;47.20;23.17;;;4.50;99.90;;;;;;4901699;29;20492;-87
2023/10/18 04:12:44;;;;;;;52.10;25.23;;;4.20;99.90;;;;;;4901761;29;20064;-88
2023/10/18 04:15:21;;;;;;;45.43;23.60;;;4.30;99.90;;;;;;4900777;29;20044;-87
2023/10/18 04:18:02;;;;;;;48.03;24.53;;;4.10;99.90;;;;;;4902464;29;20052;-88
2023/10/18 04:20:31;;;;;;;47.67;24.47;;;4.00;99.90;;;;;;4900806;29;20059;-88
2023/10/18 04:22:58;;;;;;;46.57;23.60;;;4.10;99.90;;;;;;4901745;29;20536;-87
2023/10/18 04:25:26;;;;;;;45.70;23.07;;;4.10;99.90;;;;;;4901838;29;20378;-87
2023/10/18 04:28:12;;;;;;;47.77;24.27;;;5.60;99.90;;;;;;4901074;29;20424;-88
2023/10/18 04:30:38;;;;;;;44.67;23.27;;;5.00;99.90;;;;;;4901518;29;20044;-87
2023/10/18 04:33:24;;;;;;;45.90;23.77;;;4.50;99.90;;;;;;4901451;29;20052;-88
2023/10/18 04:35:52;;;;;;;46.63;23.53;;;5.50;99.90;;;;;;4900841;29;20484;-87
2023/10/18 04:38:22;;;;;;;47.03;24.00;;;4.00;99.90;;;;;;4901093;29;20076;-88
2023/10/18 04:43:43;;;;;;;45.23;23.23;;;5.10;99.90;;;;;;4895373;29;20052;-88
2023/10/18 04:46:15;;;;;;;45.93;23.23;;;4.90;99.90;;;;;;4885687;29;20088;-88
2023/10/18 04:51:28;;;;;;;44.10;23.27;;;3.80;99.90;;;;;;4931070;29;20083;-87
2023/10/18 04:53:57;;;;;;;42.43;23.63;;;3.70;99.90;;;;;;4913948;29;20123;-88
2023/10/18 04:56:34;;;;;;;43.13;22.27;;;4.00;99.90;;;;;;4902195;29;20056;-87
2023/10/18 04:59:06;;;;;;;45.67;22.97;;;4.30;99.90;;;;;;4901885;29;20056;-86
2023/10/18 05:01:36;;;;;;;44.07;23.33;;;4.90;99.90;;;;;;4901065;29;20052;-88
2023/10/18 05:04:20;;;;;;;44.03;22.83;;;4.30;99.90;;;;;;4900658;29;20052;-87
2023/10/18 05:06:52;;;;;;;;;;;4.00;99.90;;;;;;4902005;29;20516;-88
2023/10/18 05:09:18;;;;;;;41.43;21.87;;;3.90;99.90;;;;;;4900651;29;19923;-88
2023/10/18 05:11:55;;;;;;;44.23;22.30;;;3.90;99.90;;;;;;4900280;29;20052;-88
2023/10/18 05:14:35;;;;;;;46.67;23.63;;;3.90;99.90;;;;;;4900750;29;20483;-87
2023/10/18 05:17:10;;;;;;;44.90;22.93;;;4.50;99.90;;;;;;4900209;29;20056;-87
2023/10/18 05:19:43;;;;;;;42.30;23.03;;;3.90;99.90;;;;;;4929491;29;20048;-87
2023/10/18 05:22:09;;;;;;;43.63;23.10;;;4.60;99.90;;;;;;4887093;29;20092;-87
2023/10/18 05:24:39;;;;;;;39.93;22.33;;;3.60;99.90;;;;;;4900816;29;20056;-88
2023/10/18 05:27:19;;;;;;;44.20;23.30;;;3.90;99.90;;;;;;4905886;29;20059;-88
2023/10/18 05:29:52;;;;;;;44.20;23.73;;;4.60;99.90;;;;;;4917678;29;20396;-87
2023/10/18 05:37:50;;;;;;;42.17;22.57;;;3.70;99.90;;;;;;4917591;29;20052;-88
2023/10/18 05:43:03;;;;;;;45.07;22.90;;;3.80;99.90;;;;;;4917582;29;20052;-87
2023/10/18 05:45:31;;;;;;;39.47;22.17;;;3.70;99.90;;;;;;4899133;29;20453;-86
2023/10/18 05:47:58;;;;;;;41.57;22.33;;;3.60;99.90;;;;;;4917480;29;20052;-84
2023/10/18 05:50:24;;;;;;;43.13;22.40;;;3.60;99.90;;;;;;4899433;29;20045;-84
2023/10/18 05:52:57;;;;;;;41.63;22.90;;;3.80;99.90;;;;;;4899483;29;20456;-84
2023/10/18 05:55:30;;;;;;;44.90;23.77;;;4.90;99.90;;;;;;4897871;29;20489;-83
2023/10/18 05:57:56;;;;;;;43.10;23.37;;;3.70;99.90;;;;;;4899059;29;20048;-83
2023/10/18 06:00:24;;;;;;;42.23;23.67;;;3.60;99.90;;;;;;4902702;29;20052;-83
2023/10/18 06:02:52;;;;;;;40.93;23.03;;;4.10;99.90;;;;;;4899239;29;20044;-84
2023/10/18 06:05:23;;;;;;;41.20;22.50;;;3.70;99.90;;;;;;4885963;29;20131;-84
2023/10/18 06:07:50;;;;;;;41.60;22.17;;;4.70;99.90;;;;;;4930170;29;20059;-84
2023/10/18 06:10:34;;;;;;;42.10;23.27;;;3.60;99.90;;;;;;4907742;29;20048;-84
2023/10/18 06:13:10;;;;;;;42.13;22.92;;;5.40;99.90;;;;;;4911779;29;20045;-84
2023/10/18 06:15:46;;;;;;;40.30;22.30;;;3.90;99.90;;;;;;4911376;29;20049;-84
2023/10/18 06:18:17;;;;;;;43.07;23.17;;;3.90;99.90;;;;;;4880530;29;20493;-84
2023/10/18 06:20:45;;;;;;;44.47;23.77;;;3.70;99.90;;;;;;4911601;29;20063;-85
2023/10/18 06:25:57;;;;;;;;;;;3.80;99.90;;;;;;4916490;29;20054;-84
2023/10/18 06:28:26;;;;;;;43.17;22.33;;;4.40;99.90;;;;;;4897750;29;19926;-84
2023/10/18 06:30:56;;;;;;;43.03;22.50;;;5.20;99.90;;;;;;4898783;29;20075;-83
2023/10/18 06:33:23;;;;;;;39.87;22.17;;;3.80;99.90;;;;;;4915377;29;20048;-84
2023/10/18 06:35:52;;;;;;;40.47;22.60;;;4.10;99.90;;;;;;4898501;29;20055;-86
2023/10/18 06:38:22;;;;;;;38.87;21.83;;;4.10;99.90;;;;;;4913267;29;20055;-87
2023/10/18 06:40:51;;;;;;;38.30;21.73;;;4.10;99.90;;;;;;4915386;29;20131;-85
2023/10/18 06:43:20;;;;;;;36.57;20.67;;;5.00;99.90;;;;;;4897959;29;20047;-85
2023/10/18 06:45:46;;;;;;;35.70;20.63;;;4.20;99.90;;;;;;4899206;29;20052;-84
2023/10/18 06:48:14;;;;;;;38.07;21.23;;;4.20;99.90;;;;;;4898242;29;20048;-85
2023/10/18 06:50:40;;;;;;;36.23;20.67;;;4.20;99.90;;;;;;4899329;29;20087;-84
2023/10/18 06:53:06;;;;;;;38.43;20.10;;;4.20;99.90;;;;;;4899128;29;20106;-84
2023/10/18 07:00:51;;;;;;;35.27;20.93;;;4.40;99.90;;;;;;4916236;29;20130;-87
2023/10/18 07:03:27;;;;;;;37.60;20.33;;;4.40;99.90;;;;;;4898158;29;20096;-85
2023/10/18 07:05:54;;;;;;;37.33;19.67;;;5.00;99.90;;;;;;4898990;29;20404;-84
2023/10/18 07:08:40;;;;;;;32.37;19.33;;;5.00;99.90;;;;;;4898925;29;20048;-84
2023/10/18 07:11:08;;;;;;;34.17;19.13;;;4.40;99.90;;;;;;4898528;29;20094;-85
2023/10/18 07:13:34;;;;;;;35.40;18.87;;;5.00;99.90;;;;;;4916183;29;20132;-85
2023/10/18 07:16:15;;;;;;;33.13;19.70;;;4.60;99.90;;;;;;4898910;29;20131;-85
2023/10/18 07:18:44;;;;;;;32.90;19.17;;;4.70;99.90;;;;;;4898927;29;20056;-85
2023/10/18 07:21:11;;;;;;;32.37;18.77;;;4.70;99.90;;;;;;4915551;29;20060;-85
2023/10/18 07:23:37;;;;;;;34.93;19.73;;;4.80;99.90;;;;;;4915503;29;20452;-85
2023/10/18 07:26:13;;;;;;;32.23;19.63;;;5.90;99.90;;;;;;4916934;29;20165;-84
2023/10/18 07:28:44;;;;;;;33.00;18.47;;;5.50;99.90;;;;;;4902908;29;20492;-87
2023/10/18 07:31:11;;;;;;;30.13;18.70;;;5.90;99.90;;;;;;4901912;29;20392;-86
2023/10/18 07:33:43;;;;;;;32.47;19.20;;;6.10;99.90;;;;;;4902263;29;20075;-84
2023/10/18 07:36:11;;;;;;;31.03;17.60;;;4.80;99.90;;;;;;4902602;29;20103;-87
2023/10/18 07:38:38;;;;;;;32.37;17.97;;;4.20;99.90;;;;;;4901478;29;20096;-85
2023/10/18 07:41:07;;;;;;;29.67;17.67;;;5.90;99.90;;;;;;4902075;29;20135;-84
2023/10/18 07:43:35;;;;;;;30.83;17.97;;;6.70;99.90;;;;;;4902851;29;20048;-84
2023/10/18 07:46:06;;;;;;;29.73;17.43;;;5.30;99.90;;;;;;4918827;29;20056;-85
2023/10/18 07:48:31;;;;;;;28.63;16.40;;;5.90;99.90;;;;;;4919204;29;20388;-85
2023/10/18 07:50:58;;;;;;;29.50;17.50;;;4.90;99.90;;;;;;4904314;29;20059;-84
2023/10/18 07:53:24;;;;;;;29.80;16.63;;;5.20;99.90;;;;;;4901773;29;20055;-84
2023/10/18 07:55:57;;;;;;;26.37;15.03;;;6.10;99.90;;;;;;4901909;29;20043;-85
2023/10/18 07:58:23;;;;;;;27.98;16.33;;;6.40;99.90;;;;;;4900262;29;20056;-82
2023/10/18 08:03:29;;;;;;;26.57;15.40;;;6.80;99.90;;;;;;4915461;29;20357;-83
2023/10/18 08:05:56;;;;;;;27.13;15.70;;;6.50;99.90;;;;;;4898516;29;20055;-84
2023/10/18 08:08:29;;;;;;;28.27;15.13;;;6.50;99.90;;;;;;4900709;29;20044;-84
2023/10/18 08:10:55;;;;;;;23.33;14.30;;;5.40;99.90;;;;;;4901589;29;20052;-84
2023/10/18 08:13:27;;;;;;;24.37;14.33;;;6.70;99.90;;;;;;4901036;29;20365;-83
2023/10/18 08:15:53;;;;;;;24.73;14.90;;;5.40;99.90;;;;;;4901709;29;20139;-84
2023/10/18 08:19:05;;;;;;;25.17;14.20;;;6.40;99.90;;;;;;4900895;29;20385;-84
2023/10/18 08:21:37;;;;;;;26.87;14.83;;;5.90;99.90;;;;;;4900375;29;20412;-84
2023/10/18 08:25:21;;;;;;;25.00;13.60;;;5.80;99.90;;;;;;4901619;29;20048;-84
2023/10/18 08:27:51;;;;;;;22.93;13.77;;;6.30;99.90;;;;;;4900159;29;20059;-84
2023/10/18 08:30:24;;;;;;;24.83;13.60;;;5.90;99.90;;;;;;4901107;29;20500;-84
2023/10/18 08:32:53;;;;;;;25.10;13.15;;;6.40;99.90;;;;;;4918665;29;20048;-84
2023/10/18 08:35:22;;;;;;;23.10;13.17;;;6.70;99.90;;;;;;4900352;29;20135;-84
2023/10/18 08:37:47;;;;;;;20.93;12.53;;;6.50;99.90;;;;;;4917453;29;20156;-84
2023/10/18 08:43:15;;;;;;;21.00;12.27;;;7.10;99.90;;;;;;4900836;29;20059;-84
2023/10/18 08:45:47;;;;;;;21.50;12.48;;;8.00;99.90;;;;;;4901527;29;20083;-84
2023/10/18 08:48:17;;;;;;;20.80;12.20;;;7.10;99.90;;;;;;4900222;29;20147;-84
2023/10/18 08:50:44;;;;;;;20.13;11.55;;;8.30;99.90;;;;;;4901377;29;20420;-84
2023/10/18 08:53:11;;;;;;;19.70;11.65;;;6.20;99.90;;;;;;4917678;29;20048;-84
2023/10/18 08:55:52;;;;;;;23.13;11.82;;;8.30;99.90;;;;;;4900318;29;20476;-85
2023/10/18 08:58:19;;;;;;;20.52;11.50;;;7.20;99.90;;;;;;4901193;29;20119;-84
2023/10/18 09:03:27;;;;;;;20.58;10.90;;;7.10;99.90;;;;;;4917110;29;20036;-85
2023/10/18 09:06:07;;;;;;;18.42;10.93;;;7.70;99.90;;;;;;4900748;29;20503;-84
2023/10/18 09:09:00;;;;;;;19.40;10.98;;;6.60;99.90;;;;;;4900852;29;20056;-84
2023/10/18 09:11:28;;;;;;;20.93;10.77;;;7.90;99.90;;;;;;4917338;29;20055;-84
2023/10/18 09:14:08;;;;;;;18.60;10.35;;;8.00;99.90;;;;;;4901059;29;20048;-85
2023/10/18 09:16:39;;;;;;;16.58;9.95;;;7.50;99.90;;;;;;4916851;29;20075;-84
2023/10/18 09:19:09;;;;;;;18.37;10.00;;;8.30;99.90;;;;;;4932324;29;20112;-84
2023/10/18 09:21:36;;;;;;;17.63;9.90;;;9.40;99.90;;;;;;4900380;29;20064;-84
2023/10/18 09:24:06;;;;;;;17.30;9.73;;;7.60;99.90;;;;;;4899732;29;20048;-84
2023/10/18 09:26:41;;;;;;;18.25;9.55;;;8.20;99.90;;;;;;4900528;29;20039;-84
2023/10/18 09:29:08;;;;;;;17.83;9.63;;;8.80;99.90;;;;;;4900548;29;20485;-84
2023/10/18 09:31:36;;;;;;;16.48;9.32;;;7.40;99.90;;;;;;4900197;29;20040;-84
2023/10/18 09:34:07;;;;;;;16.17;9.00;;;9.20;99.90;;;;;;4932077;29;20052;-84
2023/10/18 09:36:38;;;;;;;18.30;9.30;;;9.40;99.90;;;;;;4900059;29;20047;-84
2023/10/18 09:39:09;;;;;;;16.90;9.20;;;8.00;99.90;;;;;;4899593;29;20048;-84
2023/10/18 09:41:37;;;;;;;17.73;9.27;;;8.60;99.90;;;;;;4900383;29;20083;-85
2023/10/18 09:44:22;;;;;;;15.47;9.10;;;9.40;99.90;;;;;;4899748;29;20071;-85
2023/10/18 09:46:48;;;;;;;18.10;9.60;;;8.80;99.90;;;;;;4916817;29;20044;-84
2023/10/18 09:49:21;;;;;;;17.97;9.20;;;9.80;99.90;;;;;;4899732;29;20040;-85
2023/10/18 09:51:53;;;;;;;16.03;8.50;;;8.60;99.90;;;;;;4899312;29;20048;-85
2023/10/18 09:54:25;;;;;;;16.23;9.23;;;10.20;99.90;;;;;;4899556;29;20051;-84
2023/10/18 09:56:57;;;;;;;16.10;8.80;;;9.80;99.90;;;;;;4900436;29;20056;-85
2023/10/18 09:59:27;;;;;;;16.83;9.15;;;9.10;99.90;;;;;;4898910;29;20536;-84
2023/10/18 10:02:00;;;;;;;19.13;9.40;;;10.40;99.90;;;;;;4899848;29;20764;-84
2023/10/18 10:04:33;;;;;;;15.30;8.80;;;10.50;99.90;;;;;;4899425;29;20044;-85
2023/10/18 10:09:47;;;;;;;16.10;9.20;;;9.70;99.90;;;;;;4931879;29;20059;-84
2023/10/18 10:12:44;;;;;;;16.23;8.13;;;9.70;99.90;;;;;;4898945;29;20108;-84
2023/10/18 10:15:17;;;;;;;18.25;8.93;;;9.20;99.90;;;;;;4899495;29;20052;-84
2023/10/18 10:17:56;;;;;;;15.73;8.80;;;9.50;99.90;;;;;;4916870;29;20067;-84
2023/10/18 10:20:22;;;;;;;15.10;8.32;;;10.40;99.90;;;;;;4899201;29;20044;-85
2023/10/18 10:22:49;;;;;;;17.55;9.23;;;10.60;99.90;;;;;;4899525;29;20052;-84
2023/10/18 10:25:31;;;;;;;15.32;8.13;;;10.60;99.90;;;;;;4899649;29;20044;-82
2023/10/18 10:27:59;;;;;;;16.88;9.23;;;9.90;99.90;;;;;;4898950;29;20048;-83
2023/10/18 10:30:35;;;;;;;15.55;8.73;;;10.80;99.90;;;;;;4899459;29;20163;-83
2023/10/18 10:33:05;;;;;;;16.33;9.18;;;9.50;99.90;;;;;;4899564;29;20056;-84
2023/10/18 10:35:35;;;;;;;14.88;8.88;;;10.80;99.90;;;;;;4898425;29;20055;-83
2023/10/18 10:38:01;;;;;;;16.23;8.82;;;11.00;99.90;;;;;;4922095;23;20128;-82
2023/10/18 10:43:03;;;;;;;15.50;8.65;;;11.10;99.90;;;;;;4916622;29;20052;-83
2023/10/18 10:48:15;;;;;;;17.05;9.05;;;10.90;99.90;;;;;;4915583;29;20409;-84
2023/10/18 10:50:50;;;;;;;14.55;8.05;;;10.90;99.90;;;;;;4916499;29;20531;-84
2023/10/18 10:53:44;;;;;;;16.30;8.23;;;10.00;99.90;;;;;;4901736;29;20096;-85
2023/10/18 10:56:27;;;;;;;16.38;8.70;;;10.10;99.90;;;;;;4899606;29;20056;-87
2023/10/18 11:01:39;;;;;;;15.65;8.38;;;11.40;99.90;;;;;;4917127;29;20053;-86
2023/10/18 11:04:11;;;;;;;16.55;8.50;;;11.50;99.90;;;;;;4903513;29;20448;-88
2023/10/18 11:06:43;;;;;;;15.60;8.50;;;11.00;99.90;;;;;;4903067;29;20075;-87
2023/10/18 11:09:15;;;;;;;16.27;8.70;;;10.30;99.90;;;;;;4902663;29;20055;-87
2023/10/18 11:11:43;;;;;;;15.85;8.13;;;11.60;99.90;;;;;;4920052;29;20356;-88
2023/10/18 11:14:09;;;;;;;16.60;8.10;;;10.80;99.90;;;;;;4914248;29;20049;-86
2023/10/18 11:16:36;;;;;;;14.70;8.23;;;11.70;99.90;;;;;;4883332;29;20063;-88
2023/10/18 11:19:04;;;;;;;13.70;7.40;;;10.50;99.90;;;;;;4884449;29;20433;-95
2023/10/18 11:21:30;;;;;;;15.70;8.02;;;10.50;99.90;;;;;;4894705;29;20051;-86
2023/10/18 11:24:04;;;;;;;15.85;8.40;;;11.70;99.90;;;;;;4901639;23;20436;-87
2023/10/18 11:26:38;;;;;;;15.13;7.90;;;11.60;99.90;;;;;;4902144;29;20056;-86
2023/10/18 11:29:05;;;;;;;14.70;8.05;;;11.80;99.90;;;;;;4900830;29;20476;-87
2023/10/18 11:31:32;;;;;;;13.23;6.93;;;10.80;99.90;;;;;;4901223;29;20087;-87
2023/10/18 11:34:07;;;;;;;13.50;7.40;;;12.20;99.90;;;;;;4901883;29;20044;-87
2023/10/18 11:36:39;;;;;;;14.55;7.63;;;11.40;99.90;;;;;;4901774;29;20039;-87
2023/10/18 11:41:44;;;;;;;13.30;7.50;;;12.70;99.90;;;;;;4925941;29;20135;-87
2023/10/18 11:44:14;;;;;;;14.85;7.82;;;11.60;99.90;;;;;;4900720;29;20044;-87
2023/10/18 11:46:51;;;;;;;14.55;7.78;;;12.50;99.90;;;;;;4917881;29;20052;-86
2023/10/18 11:49:20;;;;;;;15.15;7.85;;;12.30;99.90;;;;;;4902714;29;20044;-85
2023/10/18 11:51:49;;;;;;;13.57;7.63;;;13.10;99.90;;;;;;4900842;29;20044;-86
2023/10/18 11:54:33;;;;;;;14.50;7.45;;;13.10;99.90;;;;;;4902048;29;20068;-86
2023/10/18 11:57:02;;;;;;;14.15;7.50;;;11.80;99.90;;;;;;4900503;29;20071;-87
2023/10/18 11:59:28;;;;;;;13.18;7.43;;;12.90;99.90;;;;;;4917691;29;20056;-86
2023/10/18 12:02:05;;;;;;;12.60;7.32;;;12.90;99.90;;;;;;4900458;29;20044;-86
2023/10/18 12:04:37;;;;;;;14.35;7.60;;;11.50;99.90;;;;;;4900201;29;20223;-86
2023/10/18 12:07:04;;;;;;;13.43;7.60;;;12.80;99.90;;;;;;4898631;29;20091;-86
2023/10/18 12:09:42;;;;;;;12.65;7.10;;;12.80;99.90;;;;;;4900816;29;20048;-86
2023/10/18 12:12:12;;;;;;;16.65;7.90;;;12.80;99.90;;;;;;4902698;29;20095;-86
2023/10/18 12:14:45;;;;;;;16.08;7.78;;;12.60;99.90;;;;;;4914170;29;20048;-86
2023/10/18 12:17:13;;;;;;;13.63;7.55;;;12.40;99.90;;;;;;4919882;29;20086;-85
2023/10/18 12:19:39;;;;;;;13.82;7.78;;;12.60;99.90;;;;;;4913731;29;20052;-85
2023/10/18 12:22:07;;;;;;;13.25;7.43;;;12.60;99.90;;;;;;4901806;29;20048;-85
2023/10/18 12:24:37;;;;;;;14.20;7.90;;;12.60;99.90;;;;;;4895223;29;20055;-86
2023/10/18 12:27:18;;;;;;;14.10;7.50;;;11.30;99.90;;;;;;4899858;29;20079;-85
2023/10/18 12:29:47;;;;;;;13.10;7.43;;;12.60;99.90;;;;;;4901682;29;20044;-86
2023/10/18 12:32:30;;;;;;;15.30;7.68;;;12.70;99.90;;;;;;4900966;29;20048;-87
2023/10/18 12:34:57;;;;;;;13.45;7.43;;;12.70;99.90;;;;;;4932469;29;20364;-86
2023/10/18 12:37:32;;;;;;;13.65;7.18;;;11.50;99.90;;;;;;4901351;29;20056;-87
2023/10/18 12:39:59;;;;;;;13.50;6.93;;;11.40;99.90;;;;;;4917381;29;20051;-86
2023/10/18 12:42:25;;;;;;;14.02;7.80;;;12.70;99.90;;;;;;4901354;29;20047;-83
2023/10/18 12:44:55;;;;;;;14.38;7.80;;;12.40;99.90;;;;;;4918178;29;20500;-83
2023/10/18 12:47:21;;;;;;;14.23;7.53;;;12.40;99.90;;;;;;4916980;29;20048;-83
2023/10/18 12:49:50;;;;;;;13.88;7.72;;;12.30;99.90;;;;;;4901142;29;20040;-84
2023/10/18 12:55:32;;;;;;;13.90;7.47;;;11.40;99.90;;;;;;4917338;29;20110;-83
2023/10/18 12:57:59;;;;;;;14.45;7.82;;;10.90;99.90;;;;;;4901258;29;20373;-83
2023/10/18 13:00:26;;;;;;;15.55;8.65;;;12.80;99.90;;;;;;4900633;29;20044;-84
2023/10/18 13:05:21;;;;;;;12.98;7.65;;;11.30;99.90;;;;;;4917550;29;20056;-85
2023/10/18 13:07:52;;;;;;;14.60;7.80;;;12.80;99.90;;;;;;4902039;29;20048;-85
2023/10/18 13:10:35;;;;;;;14.02;7.88;;;11.20;99.90;;;;;;4916627;29;20377;-83
2023/10/18 13:13:04;;;;;;;15.02;8.30;;;12.80;99.90;;;;;;4932238;29;20052;-85
2023/10/18 13:15:33;;;;;;;15.32;7.85;;;12.60;99.90;;;;;;4899521;29;20036;-85
2023/10/18 13:17:59;;;;;;;17.08;8.30;;;12.90;99.90;;;;;;4917308;29;20052;-84
2023/10/18 13:20:24;;;;;;;13.18;7.63;;;12.30;99.90;;;;;;4901306;29;20095;-84
2023/10/18 13:23:01;;;;;;;15.13;9.10;;;11.90;99.90;;;;;;4900098;29;20052;-85
2023/10/18 13:25:36;;;;;;;15.57;8.45;;;12.10;99.90;;;;;;4916387;29;20556;-84
2023/10/18 13:28:05;;;;;;;16.85;8.70;;;12.70;99.90;;;;;;4902393;29;20052;-84
2023/10/18 13:30:43;;;;;;;14.27;8.05;;;12.20;99.90;;;;;;4897395;29;20048;-84
2023/10/18 13:33:12;;;;;;;15.32;8.27;;;13.40;99.90;;;;;;4916632;29;20044;-84
2023/10/18 13:35:40;;;;;;;15.80;8.77;;;12.40;99.90;;;;;;4916709;29;20091;-84
2023/10/18 13:38:06;;;;;;;14.05;8.57;;;12.50;99.90;;;;;;4899834;29;20063;-86
2023/10/18 13:40:36;;;;;;;14.55;8.35;;;13.70;99.90;;;;;;4900256;29;20115;-86
2023/10/18 13:43:24;;;;;;;14.43;8.25;;;12.40;99.90;;;;;;4917926;29;20050;-86
2023/10/18 13:45:59;;;;;;;17.58;8.82;;;13.50;99.90;;;;;;4895513;29;20056;-86
2023/10/18 13:48:25;;;;;;;15.35;8.02;;;13.40;99.90;;;;;;4897927;29;20040;-84
2023/10/18 13:50:58;;;;;;;15.75;8.50;;;13.10;99.90;;;;;;4897208;29;20674;-85